Alpha Afovos — SZSJ — position and weather

sailwx.info

Track history (hours):
 
Tides and Currents Weather Stations Pressure Air Temp Water Temp Dewpoint Dewpoint Depression Visibility Wind Speed Wind Dir Waves Ship Positions

Alpha Afovos

Last reported at 2017-Jan-03 20:24 UTC. Time now 2017-Jan-19 10:55 UTC.
Position S 23°26' W 041°03'.
Warning: this ship's position is 15 days out of date.

Length 224 m; draft 14.1 m.

Type: Cargo ship. MMSI: 239802000.

Date/timePositionNaut miles runAvg speedWind from/ knotsBaromVisibWave heightAir tempDewpointWater temp
2017-Jan-03 20:24S 23°26' W 041°03'1112.7
2017-Jan-03 19:33S 23°24' W 041°14'1413.0
2017-Jan-03 18:27S 23°22' W 041°30'7813.2
2017-Jan-03 12:33S 23°08' W 042°53'1312.7
2017-Jan-03 11:32S 23°02' W 043°06'9 8.8
2017-Jan-03 10:33S 22°54' W 043°09'1 0.9
2017-Jan-03 09:30S 22°53' W 043°09'0 0.1
2017-Jan-03 08:30S 22°53' W 043°09'0 0.0
2017-Jan-03 07:30S 22°53' W 043°09'0 0.1
2017-Jan-03 06:30S 22°53' W 043°09'0 0.1
2017-Jan-03 05:24S 22°53' W 043°09'0 0.3
2017-Jan-03 04:30S 22°54' W 043°09'0 0.0
2017-Jan-03 03:30S 22°54' W 043°09'0 0.0
2017-Jan-03 02:30S 22°54' W 043°09'0 0.0
2017-Jan-03 01:30S 22°54' W 043°09'0 0.0
2017-Jan-03 00:30S 22°54' W 043°09'0 0.0
2017-Jan-02 23:30S 22°54' W 043°09'0 0.0
2017-Jan-02 22:18S 22°54' W 043°09'0 0.1
2017-Jan-02 21:33S 22°54' W 043°09'5 4.9
2017-Jan-02 20:33S 22°58' W 043°09'3 2.7
2017-Jan-02 19:30S 23°01' W 043°08'0 0.0
2017-Jan-02 18:24S 23°01' W 043°08'0 0.0
2017-Jan-02 17:30S 23°01' W 043°08'0 0.0
2017-Jan-02 16:30S 23°01' W 043°08'0 0.1
2017-Jan-02 15:30S 23°01' W 043°08'0 0.0
2017-Jan-02 14:30S 23°01' W 043°08'0 0.0
2017-Jan-02 13:30S 23°01' W 043°08'0 0.0
2017-Jan-02 12:30S 23°01' W 043°08'0 0.0
2017-Jan-02 11:30S 23°01' W 043°08'0 0.0
2017-Jan-02 10:30S 23°01' W 043°08'0 0.0
2017-Jan-02 09:30S 23°01' W 043°08'0 0.0
2017-Jan-02 08:30S 23°01' W 043°08'0 0.0
2017-Jan-02 07:30S 23°01' W 043°08'0 0.1
2017-Jan-02 06:30S 23°01' W 043°08'1 1.3
2017-Jan-02 05:27S 23°02' W 043°09'8 9.4
2017-Jan-02 04:33S 23°10' W 043°13'1311.7
2017-Jan-02 03:29S 23°21' W 043°20'23012.2
2017-Jan-01 08:33S 26°41' W 045°24'  
2016-Dec-30 01:32S 36°45' W 052°06'1212.2
2016-Dec-30 00:33S 36°56' W 052°13'2712.3
2016-Dec-29 22:21S 37°19' W 052°29'  
Track history (hours):
 
Tides and Currents Weather Stations Pressure Air Temp Water Temp Dewpoint Dewpoint Depression Visibility Wind Speed Wind Dir Waves Ship Positions

Alpha Afovos

Last reported at 2017-Jan-03 20:24 UTC. Time now 2017-Jan-19 10:55 UTC.
Position S 23°26' W 041°03'.
Warning: this ship's position is 15 days out of date.

Length 224 m; draft 14.1 m.

Type: Cargo ship. MMSI: 239802000.

Date/timePositionNaut miles runAvg speedWind from/ knotsBaromVisibWave heightAir tempDewpointWater temp
2017-Jan-03 20:24S 23°26' W 041°03'1112.7
2017-Jan-03 19:33S 23°24' W 041°14'1413.0
2017-Jan-03 18:27S 23°22' W 041°30'7813.2
2017-Jan-03 12:33S 23°08' W 042°53'1312.7
2017-Jan-03 11:32S 23°02' W 043°06'9 8.8
2017-Jan-03 10:33S 22°54' W 043°09'1 0.9
2017-Jan-03 09:30S 22°53' W 043°09'0 0.1
2017-Jan-03 08:30S 22°53' W 043°09'0 0.0
2017-Jan-03 07:30S 22°53' W 043°09'0 0.1
2017-Jan-03 06:30S 22°53' W 043°09'0 0.1
2017-Jan-03 05:24S 22°53' W 043°09'0 0.3
2017-Jan-03 04:30S 22°54' W 043°09'0 0.0
2017-Jan-03 03:30S 22°54' W 043°09'0 0.0
2017-Jan-03 02:30S 22°54' W 043°09'0 0.0
2017-Jan-03 01:30S 22°54' W 043°09'0 0.0
2017-Jan-03 00:30S 22°54' W 043°09'0 0.0
2017-Jan-02 23:30S 22°54' W 043°09'0 0.0
2017-Jan-02 22:18S 22°54' W 043°09'0 0.1
2017-Jan-02 21:33S 22°54' W 043°09'5 4.9
2017-Jan-02 20:33S 22°58' W 043°09'3 2.7
2017-Jan-02 19:30S 23°01' W 043°08'0 0.0
2017-Jan-02 18:24S 23°01' W 043°08'0 0.0
2017-Jan-02 17:30S 23°01' W 043°08'0 0.0
2017-Jan-02 16:30S 23°01' W 043°08'0 0.1
2017-Jan-02 15:30S 23°01' W 043°08'0 0.0
2017-Jan-02 14:30S 23°01' W 043°08'0 0.0
2017-Jan-02 13:30S 23°01' W 043°08'0 0.0
2017-Jan-02 12:30S 23°01' W 043°08'0 0.0
2017-Jan-02 11:30S 23°01' W 043°08'0 0.0
2017-Jan-02 10:30S 23°01' W 043°08'0 0.0
2017-Jan-02 09:30S 23°01' W 043°08'0 0.0
2017-Jan-02 08:30S 23°01' W 043°08'0 0.0
2017-Jan-02 07:30S 23°01' W 043°08'0 0.1
2017-Jan-02 06:30S 23°01' W 043°08'1 1.3
2017-Jan-02 05:27S 23°02' W 043°09'8 9.4
2017-Jan-02 04:33S 23°10' W 043°13'1311.7
2017-Jan-02 03:29S 23°21' W 043°20'23012.2
2017-Jan-01 08:33S 26°41' W 045°24'  
2016-Dec-30 01:32S 36°45' W 052°06'1212.2
2016-Dec-30 00:33S 36°56' W 052°13'2712.3
2016-Dec-29 22:21S 37°19' W 052°29'  

Dump ship's entire track history